sensor_id;sensor_type;location;lat;lon;timestamp;P1;durP1;ratioP1;P2;durP2;ratioP2
26656;SDS011;14279;50.010;8.260;2023-03-13T00:17:06;20.67;;;6.20;;
26656;SDS011;14279;50.010;8.260;2023-03-13T00:23:56;28.93;;;7.90;;
26656;SDS011;14279;50.010;8.260;2023-03-13T00:27:03;24.03;;;8.50;;
26656;SDS011;14279;50.010;8.260;2023-03-13T00:29:43;28.80;;;8.53;;
26656;SDS011;14279;50.010;8.260;2023-03-13T00:32:27;30.23;;;9.30;;
26656;SDS011;14279;50.010;8.260;2023-03-13T00:35:00;25.40;;;8.90;;
26656;SDS011;14279;50.010;8.260;2023-03-13T00:41:44;30.40;;;9.73;;
26656;SDS011;14279;50.010;8.260;2023-03-13T00:48:20;25.80;;;8.90;;
26656;SDS011;14279;50.010;8.260;2023-03-13T00:55:26;22.43;;;7.87;;
26656;SDS011;14279;50.010;8.260;2023-03-13T01:02:21;21.73;;;5.57;;
26656;SDS011;14279;50.010;8.260;2023-03-13T01:05:13;16.03;;;5.00;;
26656;SDS011;14279;50.010;8.260;2023-03-13T01:08:18;17.83;;;4.13;;
26656;SDS011;14279;50.010;8.260;2023-03-13T01:11:51;20.87;;;4.83;;
26656;SDS011;14279;50.010;8.260;2023-03-13T01:14:49;20.50;;;3.80;;
26656;SDS011;14279;50.010;8.260;2023-03-13T01:20:58;14.93;;;4.10;;
26656;SDS011;14279;50.010;8.260;2023-03-13T01:24:42;15.50;;;3.30;;
26656;SDS011;14279;50.010;8.260;2023-03-13T01:31:24;21.87;;;3.90;;
26656;SDS011;14279;50.010;8.260;2023-03-13T01:37:46;21.77;;;4.47;;
26656;SDS011;14279;50.010;8.260;2023-03-13T01:48:14;15.70;;;3.73;;
26656;SDS011;14279;50.010;8.260;2023-03-13T01:51:57;14.50;;;4.43;;
26656;SDS011;14279;50.010;8.260;2023-03-13T02:02:00;18.60;;;4.07;;
26656;SDS011;14279;50.010;8.260;2023-03-13T02:05:09;18.80;;;3.73;;
26656;SDS011;14279;50.010;8.260;2023-03-13T02:26:10;19.97;;;4.10;;
26656;SDS011;14279;50.010;8.260;2023-03-13T02:36:46;33.13;;;4.37;;
26656;SDS011;14279;50.010;8.260;2023-03-13T02:39:21;12.60;;;3.30;;
26656;SDS011;14279;50.010;8.260;2023-03-13T02:42:09;16.10;;;4.70;;
26656;SDS011;14279;50.010;8.260;2023-03-13T02:51:51;12.70;;;2.80;;
26656;SDS011;14279;50.010;8.260;2023-03-13T02:54:51;8.40;;;3.13;;
26656;SDS011;14279;50.010;8.260;2023-03-13T02:57:49;8.63;;;2.53;;
26656;SDS011;14279;50.010;8.260;2023-03-13T03:00:43;7.00;;;2.70;;
26656;SDS011;14279;50.010;8.260;2023-03-13T03:03:47;22.80;;;2.90;;
26656;SDS011;14279;50.010;8.260;2023-03-13T03:06:30;11.17;;;2.33;;
26656;SDS011;14279;50.010;8.260;2023-03-13T03:19:03;13.83;;;2.40;;
26656;SDS011;14279;50.010;8.260;2023-03-13T03:24:56;5.60;;;2.20;;
26656;SDS011;14279;50.010;8.260;2023-03-13T03:35:25;7.73;;;2.10;;
26656;SDS011;14279;50.010;8.260;2023-03-13T03:38:16;9.73;;;2.20;;
26656;SDS011;14279;50.010;8.260;2023-03-13T03:41:01;11.47;;;1.80;;
26656;SDS011;14279;50.010;8.260;2023-03-13T03:51:07;3.30;;;1.60;;
26656;SDS011;14279;50.010;8.260;2023-03-13T03:54:01;4.27;;;1.70;;
26656;SDS011;14279;50.010;8.260;2023-03-13T03:57:02;7.43;;;2.33;;
26656;SDS011;14279;50.010;8.260;2023-03-13T04:39:16;2.40;;;1.07;;
26656;SDS011;14279;50.010;8.260;2023-03-13T04:45:42;1.03;;;0.93;;
26656;SDS011;14279;50.010;8.260;2023-03-13T04:48:21;2.77;;;1.03;;
26656;SDS011;14279;50.010;8.260;2023-03-13T04:51:04;2.50;;;0.93;;
26656;SDS011;14279;50.010;8.260;2023-03-13T04:53:29;4.10;;;0.93;;
26656;SDS011;14279;50.010;8.260;2023-03-13T04:55:55;2.00;;;1.27;;
26656;SDS011;14279;50.010;8.260;2023-03-13T04:58:20;1.00;;;0.90;;
26656;SDS011;14279;50.010;8.260;2023-03-13T05:00:45;5.30;;;1.20;;
26656;SDS011;14279;50.010;8.260;2023-03-13T05:03:24;1.90;;;1.17;;
26656;SDS011;14279;50.010;8.260;2023-03-13T05:05:50;2.03;;;1.20;;
26656;SDS011;14279;50.010;8.260;2023-03-13T05:08:16;1.80;;;1.27;;
26656;SDS011;14279;50.010;8.260;2023-03-13T05:10:43;1.43;;;1.20;;
26656;SDS011;14279;50.010;8.260;2023-03-13T05:13:09;3.00;;;1.30;;
26656;SDS011;14279;50.010;8.260;2023-03-13T05:19:23;2.47;;;1.90;;
26656;SDS011;14279;50.010;8.260;2023-03-13T05:22:15;3.37;;;1.40;;
26656;SDS011;14279;50.010;8.260;2023-03-13T05:31:53;1.60;;;1.50;;
26656;SDS011;14279;50.010;8.260;2023-03-13T05:34:18;1.80;;;1.53;;
26656;SDS011;14279;50.010;8.260;2023-03-13T05:36:43;2.13;;;1.40;;
26656;SDS011;14279;50.010;8.260;2023-03-13T05:39:09;1.80;;;1.40;;
26656;SDS011;14279;50.010;8.260;2023-03-13T05:41:34;4.77;;;1.63;;
26656;SDS011;14279;50.010;8.260;2023-03-13T05:43:59;1.70;;;1.20;;
26656;SDS011;14279;50.010;8.260;2023-03-13T05:46:25;2.07;;;1.83;;
26656;SDS011;14279;50.010;8.260;2023-03-13T05:48:50;3.57;;;1.80;;
26656;SDS011;14279;50.010;8.260;2023-03-13T05:51:16;1.83;;;1.60;;
26656;SDS011;14279;50.010;8.260;2023-03-13T05:53:42;2.40;;;1.93;;
26656;SDS011;14279;50.010;8.260;2023-03-13T05:56:07;4.13;;;2.13;;
26656;SDS011;14279;50.010;8.260;2023-03-13T05:58:32;5.00;;;2.47;;
26656;SDS011;14279;50.010;8.260;2023-03-13T06:00:58;1.90;;;1.80;;
26656;SDS011;14279;50.010;8.260;2023-03-13T06:03:23;2.43;;;2.00;;
26656;SDS011;14279;50.010;8.260;2023-03-13T06:05:48;3.80;;;2.40;;
26656;SDS011;14279;50.010;8.260;2023-03-13T06:08:13;4.23;;;2.47;;
26656;SDS011;14279;50.010;8.260;2023-03-13T06:10:38;3.53;;;2.70;;
26656;SDS011;14279;50.010;8.260;2023-03-13T06:13:05;2.40;;;2.20;;
26656;SDS011;14279;50.010;8.260;2023-03-13T06:15:42;2.70;;;2.50;;
26656;SDS011;14279;50.010;8.260;2023-03-13T06:18:14;3.73;;;2.10;;
26656;SDS011;14279;50.010;8.260;2023-03-13T06:20:40;6.50;;;3.00;;
26656;SDS011;14279;50.010;8.260;2023-03-13T06:23:10;2.90;;;2.57;;
26656;SDS011;14279;50.010;8.260;2023-03-13T06:25:38;4.57;;;3.60;;
26656;SDS011;14279;50.010;8.260;2023-03-13T06:28:06;3.43;;;3.10;;
26656;SDS011;14279;50.010;8.260;2023-03-13T06:30:37;3.70;;;3.40;;
26656;SDS011;14279;50.010;8.260;2023-03-13T06:33:10;3.20;;;3.00;;
26656;SDS011;14279;50.010;8.260;2023-03-13T06:35:39;4.73;;;4.37;;
26656;SDS011;14279;50.010;8.260;2023-03-13T06:38:05;5.50;;;3.57;;
26656;SDS011;14279;50.010;8.260;2023-03-13T06:40:31;3.60;;;3.30;;
26656;SDS011;14279;50.010;8.260;2023-03-13T06:42:56;4.40;;;4.00;;
26656;SDS011;14279;50.010;8.260;2023-03-13T06:45:22;5.03;;;3.63;;
26656;SDS011;14279;50.010;8.260;2023-03-13T06:47:47;3.43;;;3.13;;
26656;SDS011;14279;50.010;8.260;2023-03-13T06:50:15;3.67;;;3.37;;
26656;SDS011;14279;50.010;8.260;2023-03-13T06:52:41;3.40;;;3.10;;
26656;SDS011;14279;50.010;8.260;2023-03-13T06:55:06;3.23;;;3.00;;
26656;SDS011;14279;50.010;8.260;2023-03-13T06:57:32;3.10;;;2.80;;
26656;SDS011;14279;50.010;8.260;2023-03-13T06:59:57;3.73;;;3.00;;
26656;SDS011;14279;50.010;8.260;2023-03-13T07:02:22;3.60;;;2.90;;
26656;SDS011;14279;50.010;8.260;2023-03-13T07:04:48;2.67;;;2.47;;
26656;SDS011;14279;50.010;8.260;2023-03-13T07:07:13;2.90;;;2.70;;
26656;SDS011;14279;50.010;8.260;2023-03-13T07:09:39;2.60;;;2.40;;
26656;SDS011;14279;50.010;8.260;2023-03-13T07:12:04;2.80;;;2.60;;
26656;SDS011;14279;50.010;8.260;2023-03-13T07:14:30;2.83;;;2.60;;
26656;SDS011;14279;50.010;8.260;2023-03-13T07:16:57;2.57;;;2.37;;
26656;SDS011;14279;50.010;8.260;2023-03-13T07:19:23;2.70;;;2.43;;
26656;SDS011;14279;50.010;8.260;2023-03-13T07:21:48;2.00;;;1.90;;
26656;SDS011;14279;50.010;8.260;2023-03-13T07:24:13;4.80;;;2.33;;
26656;SDS011;14279;50.010;8.260;2023-03-13T07:26:39;2.83;;;1.70;;
26656;SDS011;14279;50.010;8.260;2023-03-13T07:29:04;3.90;;;2.07;;
26656;SDS011;14279;50.010;8.260;2023-03-13T07:31:29;2.40;;;2.00;;
26656;SDS011;14279;50.010;8.260;2023-03-13T07:33:57;1.93;;;1.50;;
26656;SDS011;14279;50.010;8.260;2023-03-13T07:36:23;1.80;;;1.70;;
26656;SDS011;14279;50.010;8.260;2023-03-13T07:38:49;4.47;;;1.87;;
26656;SDS011;14279;50.010;8.260;2023-03-13T07:41:15;2.97;;;1.97;;
26656;SDS011;14279;50.010;8.260;2023-03-13T07:43:41;2.40;;;2.20;;
26656;SDS011;14279;50.010;8.260;2023-03-13T07:46:07;2.60;;;2.07;;
26656;SDS011;14279;50.010;8.260;2023-03-13T07:48:36;3.40;;;2.07;;
26656;SDS011;14279;50.010;8.260;2023-03-13T07:51:03;2.93;;;1.90;;
26656;SDS011;14279;50.010;8.260;2023-03-13T07:53:30;3.83;;;2.17;;
26656;SDS011;14279;50.010;8.260;2023-03-13T07:58:24;2.17;;;2.00;;
26656;SDS011;14279;50.010;8.260;2023-03-13T08:00:52;2.13;;;2.00;;
26656;SDS011;14279;50.010;8.260;2023-03-13T08:03:21;2.00;;;1.90;;
26656;SDS011;14279;50.010;8.260;2023-03-13T08:05:47;3.40;;;2.00;;
26656;SDS011;14279;50.010;8.260;2023-03-13T08:08:21;2.87;;;2.17;;
26656;SDS011;14279;50.010;8.260;2023-03-13T08:10:46;1.90;;;1.80;;
26656;SDS011;14279;50.010;8.260;2023-03-13T08:13:11;5.10;;;2.37;;
26656;SDS011;14279;50.010;8.260;2023-03-13T08:15:36;1.90;;;1.80;;
26656;SDS011;14279;50.010;8.260;2023-03-13T08:18:02;2.33;;;2.17;;
26656;SDS011;14279;50.010;8.260;2023-03-13T08:20:27;2.77;;;2.10;;
26656;SDS011;14279;50.010;8.260;2023-03-13T08:22:53;3.63;;;2.03;;
26656;SDS011;14279;50.010;8.260;2023-03-13T08:25:19;3.00;;;2.10;;
26656;SDS011;14279;50.010;8.260;2023-03-13T08:27:45;2.20;;;1.90;;
26656;SDS011;14279;50.010;8.260;2023-03-13T08:30:10;2.30;;;1.70;;
26656;SDS011;14279;50.010;8.260;2023-03-13T08:32:36;2.50;;;2.13;;
26656;SDS011;14279;50.010;8.260;2023-03-13T08:35:02;5.13;;;2.60;;
26656;SDS011;14279;50.010;8.260;2023-03-13T08:37:28;6.00;;;2.10;;
26656;SDS011;14279;50.010;8.260;2023-03-13T08:39:54;2.27;;;2.00;;
26656;SDS011;14279;50.010;8.260;2023-03-13T08:42:24;14.43;;;2.70;;
26656;SDS011;14279;50.010;8.260;2023-03-13T08:44:51;2.97;;;1.90;;
26656;SDS011;14279;50.010;8.260;2023-03-13T08:47:16;2.47;;;2.27;;
26656;SDS011;14279;50.010;8.260;2023-03-13T08:49:46;6.97;;;2.60;;
26656;SDS011;14279;50.010;8.260;2023-03-13T08:52:14;6.00;;;2.73;;
26656;SDS011;14279;50.010;8.260;2023-03-13T08:54:41;6.37;;;3.10;;
26656;SDS011;14279;50.010;8.260;2023-03-13T09:00:03;2.40;;;2.20;;
26656;SDS011;14279;50.010;8.260;2023-03-13T09:02:44;4.70;;;2.30;;
26656;SDS011;14279;50.010;8.260;2023-03-13T09:05:11;7.53;;;2.47;;
26656;SDS011;14279;50.010;8.260;2023-03-13T09:07:42;2.70;;;2.30;;
26656;SDS011;14279;50.010;8.260;2023-03-13T09:10:10;6.07;;;2.93;;
26656;SDS011;14279;50.010;8.260;2023-03-13T09:13:02;4.27;;;2.70;;
26656;SDS011;14279;50.010;8.260;2023-03-13T09:15:29;3.93;;;3.23;;
26656;SDS011;14279;50.010;8.260;2023-03-13T09:17:55;4.10;;;2.77;;
26656;SDS011;14279;50.010;8.260;2023-03-13T09:20:22;3.20;;;2.90;;
26656;SDS011;14279;50.010;8.260;2023-03-13T09:22:49;9.33;;;3.00;;
26656;SDS011;14279;50.010;8.260;2023-03-13T09:25:51;3.73;;;3.10;;
26656;SDS011;14279;50.010;8.260;2023-03-13T09:37:01;3.80;;;2.80;;
26656;SDS011;14279;50.010;8.260;2023-03-13T09:40:12;3.20;;;2.90;;
26656;SDS011;14279;50.010;8.260;2023-03-13T09:47:22;2.83;;;2.63;;
26656;SDS011;14279;50.010;8.260;2023-03-13T09:50:39;4.83;;;2.80;;
26656;SDS011;14279;50.010;8.260;2023-03-13T10:00:42;6.13;;;2.93;;
26656;SDS011;14279;50.010;8.260;2023-03-13T10:03:39;5.90;;;3.60;;
26656;SDS011;14279;50.010;8.260;2023-03-13T10:06:57;3.17;;;2.87;;
26656;SDS011;14279;50.010;8.260;2023-03-13T10:09:53;7.83;;;3.57;;
26656;SDS011;14279;50.010;8.260;2023-03-13T10:16:28;5.33;;;3.60;;
26656;SDS011;14279;50.010;8.260;2023-03-13T10:19:34;4.97;;;3.87;;
26656;SDS011;14279;50.010;8.260;2023-03-13T10:22:26;6.10;;;3.47;;
26656;SDS011;14279;50.010;8.260;2023-03-13T10:25:11;6.30;;;3.40;;
26656;SDS011;14279;50.010;8.260;2023-03-13T10:28:19;4.50;;;3.20;;
26656;SDS011;14279;50.010;8.260;2023-03-13T10:31:05;5.30;;;3.10;;
26656;SDS011;14279;50.010;8.260;2023-03-13T10:34:10;4.23;;;3.30;;
26656;SDS011;14279;50.010;8.260;2023-03-13T10:41:01;4.10;;;2.50;;
26656;SDS011;14279;50.010;8.260;2023-03-13T10:44:37;4.97;;;2.50;;
26656;SDS011;14279;50.010;8.260;2023-03-13T10:48:11;3.43;;;2.70;;
26656;SDS011;14279;50.010;8.260;2023-03-13T10:51:35;6.07;;;2.40;;
26656;SDS011;14279;50.010;8.260;2023-03-13T10:54:31;3.77;;;3.40;;
26656;SDS011;14279;50.010;8.260;2023-03-13T10:57:56;3.40;;;3.00;;
26656;SDS011;14279;50.010;8.260;2023-03-13T11:00:46;10.60;;;4.00;;
26656;SDS011;14279;50.010;8.260;2023-03-13T11:03:14;8.83;;;3.40;;
26656;SDS011;14279;50.010;8.260;2023-03-13T11:06:14;5.87;;;2.97;;
26656;SDS011;14279;50.010;8.260;2023-03-13T11:11:57;3.30;;;2.83;;
26656;SDS011;14279;50.010;8.260;2023-03-13T11:15:11;13.00;;;2.87;;
26656;SDS011;14279;50.010;8.260;2023-03-13T11:37:21;11.60;;;3.30;;
26656;SDS011;14279;50.010;8.260;2023-03-13T11:50:44;8.70;;;2.43;;
26656;SDS011;14279;50.010;8.260;2023-03-13T11:56:58;4.33;;;2.30;;
26656;SDS011;14279;50.010;8.260;2023-03-13T11:59:51;2.57;;;2.37;;
26656;SDS011;14279;50.010;8.260;2023-03-13T12:18:52;4.87;;;2.13;;
26656;SDS011;14279;50.010;8.260;2023-03-13T12:21:36;3.23;;;2.10;;
26656;SDS011;14279;50.010;8.260;2023-03-13T12:34:26;2.70;;;2.03;;
26656;SDS011;14279;50.010;8.260;2023-03-13T12:40:18;6.87;;;2.07;;
26656;SDS011;14279;50.010;8.260;2023-03-13T12:45:53;2.30;;;2.10;;
26656;SDS011;14279;50.010;8.260;2023-03-13T12:48:49;6.20;;;2.40;;
26656;SDS011;14279;50.010;8.260;2023-03-13T12:56:43;4.43;;;2.30;;
26656;SDS011;14279;50.010;8.260;2023-03-13T13:01:40;4.50;;;2.10;;
26656;SDS011;14279;50.010;8.260;2023-03-13T13:04:13;3.57;;;2.13;;
26656;SDS011;14279;50.010;8.260;2023-03-13T13:06:57;3.83;;;2.20;;
26656;SDS011;14279;50.010;8.260;2023-03-13T13:12:32;2.90;;;2.50;;
26656;SDS011;14279;50.010;8.260;2023-03-13T13:15:02;8.20;;;2.87;;
26656;SDS011;14279;50.010;8.260;2023-03-13T13:17:39;6.63;;;2.33;;
26656;SDS011;14279;50.010;8.260;2023-03-13T13:38:36;3.90;;;3.00;;
26656;SDS011;14279;50.010;8.260;2023-03-13T13:43:38;7.63;;;2.83;;
26656;SDS011;14279;50.010;8.260;2023-03-13T13:48:58;4.90;;;3.17;;
26656;SDS011;14279;50.010;8.260;2023-03-13T13:52:29;5.83;;;3.10;;
26656;SDS011;14279;50.010;8.260;2023-03-13T13:59:53;10.13;;;3.50;;
26656;SDS011;14279;50.010;8.260;2023-03-13T14:03:00;6.67;;;3.33;;
26656;SDS011;14279;50.010;8.260;2023-03-13T14:05:40;4.80;;;3.60;;
26656;SDS011;14279;50.010;8.260;2023-03-13T14:08:07;9.63;;;3.17;;
26656;SDS011;14279;50.010;8.260;2023-03-13T14:10:42;5.73;;;3.20;;
26656;SDS011;14279;50.010;8.260;2023-03-13T14:13:22;5.60;;;3.00;;
26656;SDS011;14279;50.010;8.260;2023-03-13T14:16:52;10.37;;;3.50;;
26656;SDS011;14279;50.010;8.260;2023-03-13T14:19:37;10.13;;;3.67;;
26656;SDS011;14279;50.010;8.260;2023-03-13T14:22:07;10.10;;;4.20;;
26656;SDS011;14279;50.010;8.260;2023-03-13T14:24:34;11.70;;;4.50;;
26656;SDS011;14279;50.010;8.260;2023-03-13T14:27:00;8.43;;;4.20;;
26656;SDS011;14279;50.010;8.260;2023-03-13T14:29:26;9.50;;;4.37;;
26656;SDS011;14279;50.010;8.260;2023-03-13T14:31:58;14.50;;;4.53;;
26656;SDS011;14279;50.010;8.260;2023-03-13T14:34:24;13.63;;;4.53;;
26656;SDS011;14279;50.010;8.260;2023-03-13T14:36:55;32.77;;;4.83;;
26656;SDS011;14279;50.010;8.260;2023-03-13T14:42:00;9.80;;;4.30;;
26656;SDS011;14279;50.010;8.260;2023-03-13T14:44:28;11.27;;;5.27;;
26656;SDS011;14279;50.010;8.260;2023-03-13T14:46:55;12.17;;;4.40;;
26656;SDS011;14279;50.010;8.260;2023-03-13T14:49:24;16.83;;;3.97;;
26656;SDS011;14279;50.010;8.260;2023-03-13T14:54:53;14.37;;;5.37;;
26656;SDS011;14279;50.010;8.260;2023-03-13T14:57:21;15.83;;;4.57;;
26656;SDS011;14279;50.010;8.260;2023-03-13T14:59:49;15.30;;;2.93;;
26656;SDS011;14279;50.010;8.260;2023-03-13T15:04:58;4.53;;;2.67;;
26656;SDS011;14279;50.010;8.260;2023-03-13T15:07:26;6.77;;;2.40;;
26656;SDS011;14279;50.010;8.260;2023-03-13T15:10:00;1.63;;;1.37;;
26656;SDS011;14279;50.010;8.260;2023-03-13T15:12:26;3.03;;;1.87;;
26656;SDS011;14279;50.010;8.260;2023-03-13T15:14:53;3.23;;;1.73;;
26656;SDS011;14279;50.010;8.260;2023-03-13T15:17:20;2.80;;;1.70;;
26656;SDS011;14279;50.010;8.260;2023-03-13T15:19:54;5.23;;;1.30;;
26656;SDS011;14279;50.010;8.260;2023-03-13T15:22:28;3.33;;;1.60;;
26656;SDS011;14279;50.010;8.260;2023-03-13T15:24:55;4.10;;;1.67;;
26656;SDS011;14279;50.010;8.260;2023-03-13T15:27:22;3.63;;;1.73;;
26656;SDS011;14279;50.010;8.260;2023-03-13T15:29:49;2.43;;;1.60;;
26656;SDS011;14279;50.010;8.260;2023-03-13T15:32:31;1.77;;;1.60;;
26656;SDS011;14279;50.010;8.260;2023-03-13T15:34:59;5.40;;;1.60;;
26656;SDS011;14279;50.010;8.260;2023-03-13T15:37:26;3.30;;;1.37;;
26656;SDS011;14279;50.010;8.260;2023-03-13T15:39:52;1.40;;;1.30;;
26656;SDS011;14279;50.010;8.260;2023-03-13T15:42:18;2.87;;;1.20;;
26656;SDS011;14279;50.010;8.260;2023-03-13T15:44:43;7.20;;;1.57;;
26656;SDS011;14279;50.010;8.260;2023-03-13T15:47:09;7.37;;;1.67;;
26656;SDS011;14279;50.010;8.260;2023-03-13T15:49:38;2.53;;;1.73;;
26656;SDS011;14279;50.010;8.260;2023-03-13T15:52:04;3.40;;;1.50;;
26656;SDS011;14279;50.010;8.260;2023-03-13T15:55:05;3.80;;;1.43;;
26656;SDS011;14279;50.010;8.260;2023-03-13T15:57:34;5.10;;;1.53;;
26656;SDS011;14279;50.010;8.260;2023-03-13T16:00:02;4.47;;;1.73;;
26656;SDS011;14279;50.010;8.260;2023-03-13T16:02:30;6.10;;;1.60;;
26656;SDS011;14279;50.010;8.260;2023-03-13T16:04:56;2.47;;;1.30;;
26656;SDS011;14279;50.010;8.260;2023-03-13T16:07:28;1.93;;;1.23;;
26656;SDS011;14279;50.010;8.260;2023-03-13T16:09:53;4.10;;;1.20;;
26656;SDS011;14279;50.010;8.260;2023-03-13T16:12:19;9.03;;;1.77;;
26656;SDS011;14279;50.010;8.260;2023-03-13T16:33:29;2.43;;;1.57;;
26656;SDS011;14279;50.010;8.260;2023-03-13T16:35:54;4.50;;;1.30;;
26656;SDS011;14279;50.010;8.260;2023-03-13T16:38:20;3.63;;;1.80;;
26656;SDS011;14279;50.010;8.260;2023-03-13T16:40:46;1.43;;;1.30;;
26656;SDS011;14279;50.010;8.260;2023-03-13T16:43:12;3.17;;;1.30;;
26656;SDS011;14279;50.010;8.260;2023-03-13T16:45:37;5.70;;;1.63;;
26656;SDS011;14279;50.010;8.260;2023-03-13T16:48:02;2.70;;;1.00;;
26656;SDS011;14279;50.010;8.260;2023-03-13T16:50:31;1.20;;;1.20;;
26656;SDS011;14279;50.010;8.260;2023-03-13T16:52:59;3.47;;;1.57;;
26656;SDS011;14279;50.010;8.260;2023-03-13T16:55:25;3.50;;;1.40;;
26656;SDS011;14279;50.010;8.260;2023-03-13T16:57:59;2.30;;;1.20;;
26656;SDS011;14279;50.010;8.260;2023-03-13T17:00:26;4.50;;;1.10;;
26656;SDS011;14279;50.010;8.260;2023-03-13T17:02:53;2.00;;;1.30;;
26656;SDS011;14279;50.010;8.260;2023-03-13T17:05:20;2.47;;;1.20;;
26656;SDS011;14279;50.010;8.260;2023-03-13T17:07:46;1.63;;;1.27;;
26656;SDS011;14279;50.010;8.260;2023-03-13T17:10:14;1.50;;;1.30;;
26656;SDS011;14279;50.010;8.260;2023-03-13T17:12:48;3.10;;;1.70;;
26656;SDS011;14279;50.010;8.260;2023-03-13T17:15:14;2.83;;;1.30;;
26656;SDS011;14279;50.010;8.260;2023-03-13T17:17:39;6.40;;;1.40;;
26656;SDS011;14279;50.010;8.260;2023-03-13T17:20:05;2.73;;;1.27;;
26656;SDS011;14279;50.010;8.260;2023-03-13T17:22:33;3.17;;;1.67;;
26656;SDS011;14279;50.010;8.260;2023-03-13T17:24:59;1.87;;;1.67;;
26656;SDS011;14279;50.010;8.260;2023-03-13T17:27:24;2.30;;;1.53;;
26656;SDS011;14279;50.010;8.260;2023-03-13T17:29:49;3.10;;;1.33;;
26656;SDS011;14279;50.010;8.260;2023-03-13T17:32:15;5.07;;;1.73;;
26656;SDS011;14279;50.010;8.260;2023-03-13T17:34:40;5.37;;;1.97;;
26656;SDS011;14279;50.010;8.260;2023-03-13T17:37:19;3.03;;;1.83;;
26656;SDS011;14279;50.010;8.260;2023-03-13T17:39:46;2.70;;;1.60;;
26656;SDS011;14279;50.010;8.260;2023-03-13T17:42:13;3.40;;;1.60;;
26656;SDS011;14279;50.010;8.260;2023-03-13T17:44:38;2.50;;;1.37;;
26656;SDS011;14279;50.010;8.260;2023-03-13T17:47:15;3.10;;;1.70;;
26656;SDS011;14279;50.010;8.260;2023-03-13T17:49:47;5.03;;;1.80;;
26656;SDS011;14279;50.010;8.260;2023-03-13T17:52:13;2.37;;;1.60;;
26656;SDS011;14279;50.010;8.260;2023-03-13T17:54:41;2.90;;;1.77;;
26656;SDS011;14279;50.010;8.260;2023-03-13T17:57:15;2.20;;;1.80;;
26656;SDS011;14279;50.010;8.260;2023-03-13T17:59:42;6.37;;;2.10;;
26656;SDS011;14279;50.010;8.260;2023-03-13T18:02:12;2.83;;;2.60;;
26656;SDS011;14279;50.010;8.260;2023-03-13T18:04:39;4.13;;;2.00;;
26656;SDS011;14279;50.010;8.260;2023-03-13T18:07:12;3.50;;;2.57;;
26656;SDS011;14279;50.010;8.260;2023-03-13T18:09:40;3.57;;;2.57;;
26656;SDS011;14279;50.010;8.260;2023-03-13T18:12:07;4.10;;;2.53;;
26656;SDS011;14279;50.010;8.260;2023-03-13T18:14:34;4.03;;;2.70;;
26656;SDS011;14279;50.010;8.260;2023-03-13T18:17:01;4.03;;;2.43;;
26656;SDS011;14279;50.010;8.260;2023-03-13T18:19:26;3.30;;;2.63;;
26656;SDS011;14279;50.010;8.260;2023-03-13T18:21:52;4.63;;;2.57;;
26656;SDS011;14279;50.010;8.260;2023-03-13T18:24:19;4.43;;;2.40;;
26656;SDS011;14279;50.010;8.260;2023-03-13T18:26:46;5.17;;;3.03;;
26656;SDS011;14279;50.010;8.260;2023-03-13T18:29:24;7.47;;;3.30;;
26656;SDS011;14279;50.010;8.260;2023-03-13T18:31:56;5.93;;;3.23;;
26656;SDS011;14279;50.010;8.260;2023-03-13T18:34:24;4.90;;;2.93;;
26656;SDS011;14279;50.010;8.260;2023-03-13T18:36:51;3.60;;;3.10;;
26656;SDS011;14279;50.010;8.260;2023-03-13T18:39:16;7.47;;;3.30;;
26656;SDS011;14279;50.010;8.260;2023-03-13T18:41:48;5.60;;;3.13;;
26656;SDS011;14279;50.010;8.260;2023-03-13T18:44:16;3.63;;;3.33;;
26656;SDS011;14279;50.010;8.260;2023-03-13T18:46:43;8.07;;;3.70;;
26656;SDS011;14279;50.010;8.260;2023-03-13T18:49:14;7.63;;;3.50;;
26656;SDS011;14279;50.010;8.260;2023-03-13T18:51:44;9.67;;;3.67;;
26656;SDS011;14279;50.010;8.260;2023-03-13T18:54:09;8.07;;;3.27;;
26656;SDS011;14279;50.010;8.260;2023-03-13T18:59:42;5.47;;;3.33;;
26656;SDS011;14279;50.010;8.260;2023-03-13T19:02:12;3.47;;;3.07;;
26656;SDS011;14279;50.010;8.260;2023-03-13T19:04:39;3.17;;;2.20;;
26656;SDS011;14279;50.010;8.260;2023-03-13T19:07:10;4.80;;;2.17;;
26656;SDS011;14279;50.010;8.260;2023-03-13T19:09:38;1.50;;;1.40;;
26656;SDS011;14279;50.010;8.260;2023-03-13T19:12:04;1.67;;;1.50;;
26656;SDS011;14279;50.010;8.260;2023-03-13T19:14:29;3.17;;;1.23;;
26656;SDS011;14279;50.010;8.260;2023-03-13T19:17:01;1.30;;;1.20;;
26656;SDS011;14279;50.010;8.260;2023-03-13T19:25:48;2.30;;;1.10;;
26656;SDS011;14279;50.010;8.260;2023-03-13T19:31:48;1.60;;;1.50;;
26656;SDS011;14279;50.010;8.260;2023-03-13T19:34:21;2.03;;;1.00;;
26656;SDS011;14279;50.010;8.260;2023-03-13T19:37:00;2.67;;;1.27;;
26656;SDS011;14279;50.010;8.260;2023-03-13T19:39:25;1.23;;;1.13;;
26656;SDS011;14279;50.010;8.260;2023-03-13T19:41:59;2.17;;;1.50;;
26656;SDS011;14279;50.010;8.260;2023-03-13T19:44:26;2.07;;;1.00;;
26656;SDS011;14279;50.010;8.260;2023-03-13T19:46:58;1.33;;;1.00;;
26656;SDS011;14279;50.010;8.260;2023-03-13T19:49:27;0.73;;;0.73;;
26656;SDS011;14279;50.010;8.260;2023-03-13T19:51:53;1.63;;;1.03;;
26656;SDS011;14279;50.010;8.260;2023-03-13T19:54:18;2.30;;;1.00;;
26656;SDS011;14279;50.010;8.260;2023-03-13T19:56:47;2.77;;;1.33;;
26656;SDS011;14279;50.010;8.260;2023-03-13T19:59:17;1.53;;;1.03;;
26656;SDS011;14279;50.010;8.260;2023-03-13T20:01:44;1.43;;;0.97;;
26656;SDS011;14279;50.010;8.260;2023-03-13T20:04:10;1.10;;;1.00;;
26656;SDS011;14279;50.010;8.260;2023-03-13T20:06:36;1.10;;;1.00;;
26656;SDS011;14279;50.010;8.260;2023-03-13T20:09:04;2.00;;;1.23;;
26656;SDS011;14279;50.010;8.260;2023-03-13T20:11:32;1.67;;;1.13;;
26656;SDS011;14279;50.010;8.260;2023-03-13T20:13:58;1.00;;;1.00;;
26656;SDS011;14279;50.010;8.260;2023-03-13T20:16:23;1.33;;;1.20;;
26656;SDS011;14279;50.010;8.260;2023-03-13T20:18:59;2.03;;;0.90;;
26656;SDS011;14279;50.010;8.260;2023-03-13T20:21:37;1.00;;;1.00;;
26656;SDS011;14279;50.010;8.260;2023-03-13T20:24:07;1.93;;;1.30;;
26656;SDS011;14279;50.010;8.260;2023-03-13T20:26:33;1.77;;;1.10;;
26656;SDS011;14279;50.010;8.260;2023-03-13T20:28:59;4.60;;;1.27;;
26656;SDS011;14279;50.010;8.260;2023-03-13T20:31:26;3.53;;;1.00;;
26656;SDS011;14279;50.010;8.260;2023-03-13T20:33:53;5.50;;;1.37;;
26656;SDS011;14279;50.010;8.260;2023-03-13T20:36:20;3.07;;;1.30;;
26656;SDS011;14279;50.010;8.260;2023-03-13T20:38:46;1.50;;;1.20;;
26656;SDS011;14279;50.010;8.260;2023-03-13T20:41:11;1.70;;;1.20;;
26656;SDS011;14279;50.010;8.260;2023-03-13T20:43:38;2.50;;;1.27;;
26656;SDS011;14279;50.010;8.260;2023-03-13T20:46:07;1.80;;;1.30;;
26656;SDS011;14279;50.010;8.260;2023-03-13T20:48:36;3.33;;;1.20;;
26656;SDS011;14279;50.010;8.260;2023-03-13T20:51:03;3.37;;;1.10;;
26656;SDS011;14279;50.010;8.260;2023-03-13T20:53:29;1.40;;;1.10;;
26656;SDS011;14279;50.010;8.260;2023-03-13T20:55:54;1.30;;;1.20;;
26656;SDS011;14279;50.010;8.260;2023-03-13T20:58:20;1.20;;;1.10;;
26656;SDS011;14279;50.010;8.260;2023-03-13T21:00:45;1.87;;;1.03;;
26656;SDS011;14279;50.010;8.260;2023-03-13T21:03:12;2.47;;;1.37;;
26656;SDS011;14279;50.010;8.260;2023-03-13T21:05:41;1.83;;;1.20;;
26656;SDS011;14279;50.010;8.260;2023-03-13T21:08:07;4.53;;;1.80;;
26656;SDS011;14279;50.010;8.260;2023-03-13T21:10:36;1.80;;;1.40;;
26656;SDS011;14279;50.010;8.260;2023-03-13T21:13:02;2.40;;;1.50;;
26656;SDS011;14279;50.010;8.260;2023-03-13T21:15:28;1.80;;;1.70;;
26656;SDS011;14279;50.010;8.260;2023-03-13T21:17:53;1.27;;;1.17;;
26656;SDS011;14279;50.010;8.260;2023-03-13T21:20:20;2.10;;;1.50;;
26656;SDS011;14279;50.010;8.260;2023-03-13T21:22:46;3.80;;;2.00;;
26656;SDS011;14279;50.010;8.260;2023-03-13T21:25:11;4.03;;;2.30;;
26656;SDS011;14279;50.010;8.260;2023-03-13T21:27:37;1.63;;;1.53;;